Time;durP1;ratioP1;P1;durP2;ratioP2;P2;SDS_P1;SDS_P2;PMS_P1;PMS_P2;Temp;Humidity;BMP_temperature;BMP_pressure;BME280_temperature;BME280_humidity;BME280_pressure;Samples;Min_cycle;Max_cycle;Signal;HPM_P1;HPM_P2
2021/07/14 00:01:25;;;;;;;4.18;3.30;;;;;;;22.38;100.00;95852.38;5022986;28;20041;-51
2021/07/14 00:03:54;;;;;;;7.22;3.25;;;;;;;22.29;100.00;95845.72;5020729;28;20077;-53
2021/07/14 00:06:38;;;;;;;7.47;3.55;;;;;;;22.52;100.00;95842.22;5025753;28;20075;-52
2021/07/14 00:09:07;;;;;;;4.88;3.53;;;;;;;23.08;100.00;95845.31;5022684;28;20543;-50
2021/07/14 00:11:39;;;;;;;11.18;3.92;;;;;;;22.98;100.00;95857.47;5028903;28;20065;-53
2021/07/14 00:14:27;;;;;;;8.32;3.40;;;;;;;22.29;100.00;95853.78;5025256;28;20519;-51
2021/07/14 00:17:18;;;;;;;5.28;3.55;;;;;;;21.51;100.00;95831.47;5028846;28;20081;-54
2021/07/14 00:22:37;;;;;;;5.15;3.17;;;;;;;22.15;100.00;95796.78;5013007;28;20361;-53
2021/07/14 00:25:08;;;;;;;6.45;3.63;;;;;;;21.46;100.00;95828.63;5028075;28;20046;-54
2021/07/14 00:27:39;;;;;;;6.32;3.58;;;;;;;21.06;100.00;95812.25;5022781;28;20517;-52
2021/07/14 00:30:10;;;;;;;9.57;3.85;;;;;;;21.10;100.00;95786.63;5020829;28;20088;-54
2021/07/14 00:32:38;;;;;;;;;;;;;;;21.93;100.00;95780.44;5021390;28;20069;-52
2021/07/14 00:35:08;;;;;;;9.63;3.72;;;;;;;22.54;100.00;95746.09;5024519;28;20390;-55
2021/07/14 00:37:37;;;;;;;4.23;3.50;;;;;;;22.16;100.00;95738.53;5023479;28;20096;-54
2021/07/14 00:40:08;;;;;;;6.50;3.90;;;;;;;21.90;100.00;95742.50;5018753;28;20073;-55
2021/07/14 00:42:37;;;;;;;5.25;4.00;;;;;;;22.57;100.00;95774.31;5026074;28;20080;-54
2021/07/14 00:45:06;;;;;;;5.60;3.95;;;;;;;22.25;100.00;95823.06;5024872;28;20068;-54
2021/07/14 00:47:36;;;;;;;5.05;3.67;;;;;;;22.71;100.00;95810.63;5017715;28;20527;-51
2021/07/14 00:50:06;;;;;;;5.23;4.37;;;;;;;21.97;100.00;95827.22;5021285;28;20081;-53
2021/07/14 00:52:36;;;;;;;5.00;4.13;;;;;;;21.58;100.00;95827.88;5026608;28;20515;-56
2021/07/14 00:55:06;;;;;;;7.55;3.97;;;;;;;22.00;100.00;95816.03;5022378;28;20083;-52
2021/07/14 00:57:34;;;;;;;;;;;;;;;22.10;100.00;95826.19;5023081;28;20493;-51
2021/07/14 01:00:05;;;;;;;8.38;3.97;;;;;;;22.83;100.00;95824.88;5026231;28;19959;-52
2021/07/14 01:02:34;;;;;;;6.95;4.38;;;;;;;23.18;100.00;95832.88;5021494;28;20053;-51
2021/07/14 01:05:05;;;;;;;11.27;4.63;;;;;;;21.37;100.00;95830.00;5017301;28;20088;-53
2021/07/14 01:07:39;;;;;;;7.25;4.60;;;;;;;21.17;100.00;95845.53;5023983;28;20088;-55
2021/07/14 01:10:14;;;;;;;5.53;4.93;;;;;;;21.82;100.00;95848.34;5025404;28;20069;-47
2021/07/14 01:12:48;;;;;;;7.78;4.80;;;;;;;21.20;100.00;95853.13;5022574;28;20081;-48
2021/07/14 01:15:18;;;;;;;8.20;5.20;;;;;;;21.61;100.00;95844.31;5019687;28;20073;-52
2021/07/14 01:17:49;;;;;;;5.80;4.78;;;;;;;21.90;100.00;95845.31;5026363;28;20057;-53
2021/07/14 01:20:27;;;;;;;6.40;4.85;;;;;;;22.07;100.00;95840.09;5025229;28;20132;-48
2021/07/14 01:23:05;;;;;;;6.75;4.60;;;;;;;21.92;100.00;95855.81;5020595;28;20091;-51
2021/07/14 01:25:47;;;;;;;10.35;5.05;;;;;;;21.87;100.00;95855.69;5016873;28;20053;-49
2021/07/14 01:28:17;;;;;;;7.28;4.70;;;;;;;21.52;100.00;95853.72;5025934;28;20536;-53
2021/07/14 01:30:45;;;;;;;7.05;4.70;;;;;;;21.60;100.00;95845.34;5020807;28;20531;-51
2021/07/14 01:33:15;;;;;;;7.72;5.00;;;;;;;21.98;100.00;95842.28;5017628;28;20068;-55
2021/07/14 01:35:46;;;;;;;6.53;4.93;;;;;;;22.90;100.00;95835.50;5015120;28;20057;-54
2021/07/14 01:38:15;;;;;;;6.53;5.10;;;;;;;22.77;100.00;95849.19;5023898;28;20449;-51
2021/07/14 01:40:44;;;;;;;6.05;4.82;;;;;;;22.94;100.00;95844.75;5024649;28;20085;-53
2021/07/14 01:43:12;;;;;;;8.02;4.25;;;;;;;22.94;100.00;95850.13;5016737;28;20072;-49
2021/07/14 01:45:43;;;;;;;10.52;4.60;;;;;;;23.38;100.00;95845.09;5024701;28;20053;-55
2021/07/14 01:48:12;;;;;;;6.15;4.75;;;;;;;23.50;100.00;95815.41;5023887;28;20064;-52
2021/07/14 01:50:41;;;;;;;7.38;4.63;;;;;;;23.90;100.00;95802.69;5017367;28;20534;-55
2021/07/14 01:53:09;;;;;;;6.10;4.22;;;;;;;23.30;100.00;95807.81;5014397;28;20069;-50
2021/07/14 01:55:40;;;;;;;6.25;4.00;;;;;;;23.72;100.00;95767.13;5026441;28;20080;-51
2021/07/14 01:58:08;;;;;;;6.63;4.35;;;;;;;22.70;100.00;95744.50;5019636;28;20061;-51
2021/07/14 02:00:38;;;;;;;8.88;4.50;;;;;;;23.22;100.00;95742.56;5020425;28;20065;-53
2021/07/14 02:03:18;;;;;;;5.07;4.37;;;;;;;23.45;100.00;95762.34;5018856;28;20072;-54
2021/07/14 02:05:47;;;;;;;6.75;4.55;;;;;;;23.51;100.00;95757.88;5025359;28;20491;-53
2021/07/14 02:08:15;;;;;;;10.98;4.80;;;;;;;23.51;100.00;95763.25;5017931;28;20100;-52
2021/07/14 02:10:44;;;;;;;11.50;5.20;;;;;;;23.44;100.00;95753.44;5021441;28;20078;-51
2021/07/14 02:13:13;;;;;;;16.73;5.23;;;;;;;22.66;100.00;95770.22;5024653;28;20072;-55
2021/07/14 02:16:02;;;;;;;8.88;4.75;;;;;;;23.18;100.00;95765.63;5023443;28;20044;-56
2021/07/14 02:18:36;;;;;;;7.40;4.82;;;;;;;22.62;100.00;95761.81;5018849;28;20073;-54
2021/07/14 02:21:04;;;;;;;11.10;4.75;;;;;;;22.84;100.00;95753.09;5015625;28;20073;-51
2021/07/14 02:23:33;;;;;;;9.77;4.95;;;;;;;23.22;100.00;95750.63;5023223;28;20065;-51
2021/07/14 02:26:02;;;;;;;11.80;5.18;;;;;;;22.15;100.00;95761.88;5023662;28;20527;-50
2021/07/14 02:28:30;;;;;;;8.68;5.22;;;;;;;22.59;100.00;95764.16;5023409;28;20120;-53
2021/07/14 02:30:59;;;;;;;7.32;4.85;;;;;;;22.67;100.00;95756.53;5018095;28;20089;-51
2021/07/14 02:33:28;;;;;;;7.78;4.50;;;;;;;22.70;100.00;95757.94;5023312;28;20076;-51
2021/07/14 02:36:02;;;;;;;7.97;4.97;;;;;;;23.04;100.00;95769.66;5018275;28;20970;-55
2021/07/14 02:38:37;;;;;;;6.95;4.78;;;;;;;22.77;100.00;95773.94;5021393;28;20080;-54
2021/07/14 02:41:14;;;;;;;10.10;5.00;;;;;;;22.49;100.00;95770.94;5020776;28;20073;-50
2021/07/14 02:43:45;;;;;;;10.93;4.75;;;;;;;22.83;100.00;95775.69;5020152;28;20495;-55
2021/07/14 02:46:23;;;;;;;10.88;4.57;;;;;;;22.56;100.00;95784.25;5018935;28;20072;-57
2021/07/14 02:48:53;;;;;;;9.00;4.80;;;;;;;22.23;100.00;95796.47;5020128;28;20073;-51
2021/07/14 02:51:24;;;;;;;6.45;4.50;;;;;;;22.34;100.00;95772.50;5022742;28;20057;-56
2021/07/14 02:53:54;;;;;;;7.70;4.25;;;;;;;22.86;100.00;95759.06;5018563;28;20072;-51
2021/07/14 02:56:22;;;;;;;;;;;;;;;23.09;100.00;95761.72;5021975;28;20041;-49
2021/07/14 02:58:54;;;;;;;10.02;4.28;;;;;;;22.99;100.00;95766.91;5022146;28;20000;-49
2021/07/14 03:01:22;;;;;;;6.25;5.03;;;;;;;22.63;100.00;95786.81;5023375;28;20080;-53
2021/07/14 03:03:52;;;;;;;6.18;4.50;;;;;;;22.31;100.00;95794.47;5020855;28;20064;-51
2021/07/14 03:06:23;;;;;;;5.82;4.28;;;;;;;22.68;100.00;95795.00;5020106;28;20080;-53
2021/07/14 03:09:02;;;;;;;9.02;4.50;;;;;;;22.93;100.00;95806.31;5020781;28;20066;-50
2021/07/14 03:11:32;;;;;;;8.65;4.45;;;;;;;22.64;100.00;95805.41;5019440;28;20061;-52
2021/07/14 03:14:00;;;;;;;6.75;4.60;;;;;;;23.27;100.00;95797.53;5023125;28;20081;-55
2021/07/14 03:16:30;;;;;;;7.88;4.47;;;;;;;22.94;100.00;95785.59;5020333;28;20081;-53
2021/07/14 03:18:59;;;;;;;7.20;4.70;;;;;;;22.58;100.00;95776.78;5024706;28;20080;-56
2021/07/14 03:21:31;;;;;;;8.65;4.45;;;;;;;22.78;100.00;95775.56;5019645;28;20483;-54
2021/07/14 03:24:00;;;;;;;13.35;4.63;;;;;;;23.00;100.00;95771.22;5021689;28;20080;-53
2021/07/14 03:26:29;;;;;;;6.97;4.30;;;;;;;23.02;100.00;95779.88;5020813;28;20073;-52
2021/07/14 03:28:58;;;;;;;10.18;3.90;;;;;;;23.13;100.00;95781.69;5026161;28;20081;-54
2021/07/14 03:31:26;;;;;;;12.82;4.47;;;;;;;22.63;100.00;95786.81;5019855;28;20221;-54
2021/07/14 03:33:54;;;;;;;8.70;4.32;;;;;;;22.81;100.00;95796.59;5018692;28;20068;-52
2021/07/14 03:36:23;;;;;;;12.63;4.50;;;;;;;21.76;100.00;95804.44;5024193;28;20091;-51
2021/07/14 03:38:53;;;;;;;7.18;4.38;;;;;;;21.98;100.00;95793.94;5022176;28;20060;-50
2021/07/14 03:41:22;;;;;;;8.48;4.85;;;;;;;22.31;100.00;95803.34;5022227;28;20065;-54
2021/07/14 03:43:51;;;;;;;13.88;4.82;;;;;;;22.49;100.00;95811.25;5023598;28;20089;-54
2021/07/14 03:46:20;;;;;;;8.02;4.30;;;;;;;22.15;100.00;95809.41;5020527;28;20065;-48
2021/07/14 03:48:48;;;;;;;6.80;4.28;;;;;;;22.37;100.00;95815.03;5019388;28;20072;-54
2021/07/14 03:51:18;;;;;;;6.90;4.22;;;;;;;23.11;100.00;95820.63;5016304;28;20068;-51
2021/07/14 03:53:46;;;;;;;6.55;3.95;;;;;;;22.84;100.00;95818.44;5023584;28;20057;-52
2021/07/14 03:56:35;;;;;;;10.98;4.40;;;;;;;22.79;100.00;95821.03;5026105;28;20064;-53
2021/07/14 03:59:03;;;;;;;6.38;4.10;;;;;;;22.64;100.00;95824.22;5020984;28;20076;-54
2021/07/14 04:01:32;;;;;;;6.60;3.75;;;;;;;22.56;100.00;95826.44;5025864;28;20084;-53
2021/07/14 04:04:01;;;;;;;9.90;4.10;;;;;;;22.65;100.00;95820.47;5020897;28;20069;-52
2021/07/14 04:06:33;;;;;;;6.63;4.28;;;;;;;22.69;100.00;95821.63;5023251;28;20069;-54
2021/07/14 04:09:22;;;;;;;5.50;3.47;;;;;;;21.99;100.00;95822.47;5025010;28;20084;-55
2021/07/14 04:11:55;;;;;;;5.53;3.20;;;;;;;21.56;100.00;95823.53;5022542;28;20519;-56
2021/07/14 04:14:24;;;;;;;6.50;3.50;;;;;;;22.00;100.00;95824.09;5024659;28;20098;-51
2021/07/14 04:16:53;;;;;;;8.15;3.40;;;;;;;21.44;100.00;95825.38;5025912;28;20083;-49
2021/07/14 04:19:22;;;;;;;6.73;3.20;;;;;;;22.11;100.00;95819.78;5021842;28;20065;-52
2021/07/14 04:21:51;;;;;;;8.00;3.30;;;;;;;21.46;100.00;95817.91;5020894;28;21001;-52
2021/07/14 04:24:19;;;;;;;7.63;3.70;;;;;;;22.07;100.00;95820.47;5029196;28;20065;-54
2021/07/14 04:26:48;;;;;;;8.88;3.35;;;;;;;21.25;100.00;95826.44;5020540;28;20064;-51
2021/07/14 04:29:19;;;;;;;4.93;2.90;;;;;;;21.32;100.00;95829.84;5022711;28;20085;-55
2021/07/14 04:31:47;;;;;;;7.53;2.93;;;;;;;21.24;100.00;95816.75;5031292;28;20496;-51
2021/07/14 04:34:16;;;;;;;4.93;2.92;;;;;;;21.20;100.00;95820.94;5027101;28;20511;-53
2021/07/14 04:36:56;;;;;;;4.78;2.50;;;;;;;20.60;100.00;95827.00;5025706;28;20048;-53
2021/07/14 04:39:24;;;;;;;6.15;2.53;;;;;;;20.89;100.00;95813.88;5024001;28;20071;-50
2021/07/14 04:41:53;;;;;;;5.90;2.33;;;;;;;20.53;100.00;95808.34;5023630;28;20069;-51
2021/07/14 04:44:32;;;;;;;7.55;2.17;;;;;;;20.78;100.00;95804.75;5024470;28;20061;-54
2021/07/14 04:47:00;;;;;;;3.33;2.00;;;;;;;20.46;100.00;95807.56;5025062;28;20439;-50
2021/07/14 04:49:29;;;;;;;3.63;1.90;;;;;;;20.20;100.00;95805.13;5020983;28;20076;-50
2021/07/14 04:51:58;;;;;;;6.60;1.98;;;;;;;20.00;100.00;95800.00;5020107;28;20077;-52
2021/07/14 04:54:26;;;;;;;1.65;1.55;;;;;;;20.63;100.00;95792.56;5020704;28;20061;-52
2021/07/14 04:56:54;;;;;;;2.03;1.60;;;;;;;20.27;100.00;95790.66;5025703;28;20061;-53
2021/07/14 04:59:25;;;;;;;2.63;1.88;;;;;;;20.64;100.00;95785.34;5021690;28;20064;-52
2021/07/14 05:01:53;;;;;;;2.72;1.70;;;;;;;20.25;100.00;95778.53;5026081;28;20069;-49
2021/07/14 05:04:22;;;;;;;2.72;1.63;;;;;;;20.66;100.00;95790.47;5008345;28;20061;-52
2021/07/14 05:06:50;;;;;;;3.08;1.90;;;;;;;21.14;100.00;95778.94;5003195;28;20069;-51
2021/07/14 05:09:19;;;;;;;3.35;1.70;;;;;;;20.44;100.00;95774.84;5017472;28;20693;-57
2021/07/14 05:11:48;;;;;;;4.28;1.67;;;;;;;20.80;100.00;95775.88;5023736;28;20073;-52
2021/07/14 05:14:16;;;;;;;3.60;1.85;;;;;;;20.28;100.00;95772.75;5024564;28;20081;-52
2021/07/14 05:16:46;;;;;;;3.47;1.70;;;;;;;20.70;100.00;95770.22;5024045;28;20060;-52
2021/07/14 05:19:15;;;;;;;;;;;;;;;20.48;100.00;95772.53;5025708;28;20074;-53
2021/07/14 05:21:43;;;;;;;4.05;1.90;;;;;;;20.68;100.00;95770.47;5026707;28;20402;-53
2021/07/14 05:24:12;;;;;;;10.50;2.30;;;;;;;20.43;100.00;95772.38;5026819;28;20445;-51
2021/07/14 05:26:40;;;;;;;4.65;1.83;;;;;;;20.91;100.00;95775.09;5005477;28;20140;-54
2021/07/14 05:29:09;;;;;;;3.00;1.63;;;;;;;20.71;100.00;95770.00;5019682;28;20080;-53
2021/07/14 05:31:38;;;;;;;2.03;1.83;;;;;;;20.60;100.00;95774.25;5025919;28;20065;-53
2021/07/14 05:34:07;;;;;;;5.50;1.85;;;;;;;20.74;100.00;95784.81;5023572;28;20057;-56
2021/07/14 05:36:36;;;;;;;3.55;1.75;;;;;;;20.53;100.00;95778.88;5019540;28;20645;-49
2021/07/14 05:39:05;;;;;;;5.13;1.75;;;;;;;20.83;100.00;95781.59;5017888;28;20053;-56
2021/07/14 05:41:33;;;;;;;4.63;1.60;;;;;;;20.82;100.00;95779.16;5026687;28;20076;-50
2021/07/14 05:44:01;;;;;;;6.47;2.00;;;;;;;21.26;100.00;95763.69;5020689;28;20077;-50
2021/07/14 05:46:30;;;;;;;2.05;1.50;;;;;;;20.80;100.00;95763.28;5009396;28;20076;-52
2021/07/14 05:49:02;;;;;;;1.85;1.67;;;;;;;20.89;100.00;95754.94;5019311;28;20074;-51
2021/07/14 05:51:32;;;;;;;2.17;1.63;;;;;;;21.31;100.00;95755.78;5026536;28;20087;-52
2021/07/14 05:54:01;;;;;;;4.50;1.83;;;;;;;21.29;100.00;95761.38;5021446;28;20077;-48
2021/07/14 05:56:29;;;;;;;6.22;1.90;;;;;;;21.50;100.00;95757.38;5002539;28;20065;-51
2021/07/14 05:58:58;;;;;;;5.00;1.85;;;;;;;21.74;100.00;95765.47;5029462;28;20519;-56
2021/07/14 06:01:26;;;;;;;6.00;2.10;;;;;;;21.86;100.00;95768.16;5003771;28;20486;-56
2021/07/14 06:03:55;;;;;;;3.63;1.73;;;;;;;21.23;100.00;95785.59;5018863;28;20072;-51
2021/07/14 06:06:23;;;;;;;2.83;1.75;;;;;;;21.55;100.00;95778.97;5016353;28;20076;-53
2021/07/14 06:08:53;;;;;;;4.75;2.15;;;;;;;21.52;100.00;95770.56;5025207;28;20053;-53
2021/07/14 06:11:22;;;;;;;2.05;1.77;;;;;;;21.07;100.00;95782.53;5003037;28;20072;-52
2021/07/14 06:13:50;;;;;;;3.33;2.03;;;;;;;21.17;100.00;95783.84;5022797;28;20068;-51
2021/07/14 06:16:19;;;;;;;3.53;2.17;;;;;;;21.43;100.00;95786.16;5032879;28;20065;-56
2021/07/14 06:18:47;;;;;;;2.60;2.10;;;;;;;21.55;100.00;95794.25;5021669;28;20056;-50
2021/07/14 06:21:16;;;;;;;2.83;2.30;;;;;;;21.68;100.00;95793.22;5019655;28;20073;-53
2021/07/14 06:23:44;;;;;;;5.60;2.15;;;;;;;22.65;100.00;95792.78;5015250;28;20038;-48
2021/07/14 06:26:14;;;;;;;3.20;1.90;;;;;;;22.02;100.00;95803.19;5024077;28;20475;-49
2021/07/14 06:28:42;;;;;;;4.20;2.25;;;;;;;22.11;100.00;95811.72;5009784;28;20064;-53
2021/07/14 06:31:11;;;;;;;3.40;2.15;;;;;;;22.10;100.00;95809.28;5019264;28;20054;-54
2021/07/14 06:33:40;;;;;;;5.22;2.13;;;;;;;21.85;100.00;95820.19;5024923;28;20058;-55
2021/07/14 06:36:09;;;;;;;3.60;2.50;;;;;;;22.55;100.00;95811.38;5020033;28;20066;-52
2021/07/14 06:38:39;;;;;;;7.68;2.22;;;;;;;22.98;100.00;95822.53;5017091;28;20049;-54
2021/07/14 06:41:08;;;;;;;4.57;2.20;;;;;;;22.71;100.00;95819.53;5020520;28;20061;-53
2021/07/14 06:43:45;;;;;;;3.33;2.20;;;;;;;22.80;100.00;95819.97;5025515;28;20065;-51
2021/07/14 06:46:15;;;;;;;5.10;2.20;;;;;;;22.84;100.00;95818.44;5022578;28;20064;-52
2021/07/14 06:48:44;;;;;;;3.90;2.25;;;;;;;22.60;100.00;95822.22;5017857;28;20661;-52
2021/07/14 06:51:13;;;;;;;2.75;2.13;;;;;;;21.62;100.00;95823.69;5028724;28;20073;-52
2021/07/14 06:53:41;;;;;;;3.33;2.03;;;;;;;21.86;100.00;95828.03;5022774;28;20038;-51
2021/07/14 06:56:10;;;;;;;3.78;2.30;;;;;;;22.16;100.00;95837.88;5021465;28;20441;-54
2021/07/14 06:58:40;;;;;;;3.55;2.42;;;;;;;21.53;100.00;95836.59;5021592;28;20076;-52
2021/07/14 07:01:09;;;;;;;4.45;2.58;;;;;;;22.36;100.00;95843.75;5021960;28;20072;-55
2021/07/14 07:03:38;;;;;;;3.05;2.30;;;;;;;23.19;100.00;95850.66;5018701;28;20073;-51
2021/07/14 07:06:07;;;;;;;3.78;2.35;;;;;;;23.40;100.00;95845.66;5015281;28;20060;-49
2021/07/14 07:08:36;;;;;;;3.88;2.13;;;;;;;22.49;100.00;95850.75;5021190;28;20072;-50
2021/07/14 07:11:04;;;;;;;4.80;2.30;;;;;;;22.16;100.00;95854.84;5021504;28;20077;-52
2021/07/14 07:13:33;;;;;;;5.47;2.60;;;;;;;22.28;100.00;95846.78;5018977;28;20081;-53
2021/07/14 07:16:03;;;;;;;2.35;2.00;;;;;;;23.48;100.00;95845.28;5029197;28;20562;-51
2021/07/14 07:18:31;;;;;;;8.07;2.60;;;;;;;23.17;100.00;95844.69;5023401;28;20069;-51
2021/07/14 07:21:01;;;;;;;3.38;2.17;;;;;;;24.07;100.00;95836.91;5022145;28;20069;-49
2021/07/14 07:23:31;;;;;;;3.53;2.40;;;;;;;24.86;100.00;95831.34;5019527;28;20082;-51
2021/07/14 07:25:59;;;;;;;6.07;2.35;;;;;;;24.40;97.08;95830.72;5021859;28;20112;-53
2021/07/14 07:28:33;;;;;;;4.93;2.08;;;;;;;24.89;96.04;95832.72;5022991;28;20073;-52
2021/07/14 07:31:04;;;;;;;3.28;1.92;;;;;;;24.41;98.82;95840.41;5026146;28;20080;-53
2021/07/14 07:33:32;;;;;;;4.43;2.28;;;;;;;23.80;100.00;95842.09;5016670;28;20779;-56
2021/07/14 07:36:01;;;;;;;3.28;2.10;;;;;;;24.47;100.00;95839.44;5028955;28;20107;-52
2021/07/14 07:38:29;;;;;;;3.28;1.90;;;;;;;23.57;100.00;95854.63;5023117;28;20061;-53
2021/07/14 07:40:58;;;;;;;6.35;2.25;;;;;;;23.00;100.00;95851.06;5024964;28;20559;-54
2021/07/14 07:43:28;;;;;;;3.25;2.40;;;;;;;23.66;100.00;95861.22;5026096;28;20209;-50
2021/07/14 07:45:56;;;;;;;2.75;1.90;;;;;;;24.30;99.99;95858.28;5025299;28;20061;-55
2021/07/14 07:48:26;;;;;;;6.00;2.55;;;;;;;24.35;100.00;95855.66;5023347;28;20060;-49
2021/07/14 07:51:00;;;;;;;4.43;2.50;;;;;;;24.10;100.00;95855.28;5020380;28;20080;-53
2021/07/14 07:53:28;;;;;;;3.53;2.20;;;;;;;25.25;93.74;95861.78;5025057;28;20069;-52
2021/07/14 07:55:56;;;;;;;4.53;2.47;;;;;;;25.89;88.32;95869.25;5029715;28;20089;-54
2021/07/14 07:58:25;;;;;;;7.93;2.65;;;;;;;26.18;79.88;95867.06;5019234;28;20390;-57
2021/07/14 08:00:54;;;;;;;3.35;1.85;;;;;;;26.10;83.02;95866.72;5023036;28;20084;-50
2021/07/14 08:03:22;;;;;;;2.47;2.05;;;;;;;25.31;89.31;95882.38;5024479;28;20061;-54
2021/07/14 08:05:52;;;;;;;3.10;2.22;;;;;;;25.88;80.41;95873.03;5025427;28;20064;-54
2021/07/14 08:08:21;;;;;;;7.28;2.45;;;;;;;25.48;83.65;95863.41;5021922;28;20068;-59
2021/07/14 08:10:52;;;;;;;8.32;2.40;;;;;;;25.33;88.40;95868.63;5027804;28;20069;-51
2021/07/14 08:13:21;;;;;;;4.22;2.25;;;;;;;25.76;84.17;95875.03;5023961;28;20526;-51
2021/07/14 08:15:50;;;;;;;2.85;2.30;;;;;;;26.27;75.06;95862.00;5021057;28;20065;-56
2021/07/14 08:18:18;;;;;;;4.05;2.15;;;;;;;25.73;83.67;95872.84;5018824;28;20432;-51
2021/07/14 08:20:47;;;;;;;4.95;2.17;;;;;;;26.42;78.86;95872.09;5024258;28;20057;-55
2021/07/14 08:23:17;;;;;;;2.60;1.90;;;;;;;25.99;81.16;95872.03;5007343;28;20085;-54
2021/07/14 08:25:45;;;;;;;4.30;1.90;;;;;;;26.50;76.84;95861.66;5027915;28;20072;-49
2021/07/14 08:28:14;;;;;;;3.65;2.03;;;;;;;25.50;86.10;95872.06;5025869;28;20549;-51
2021/07/14 08:30:42;;;;;;;3.78;2.42;;;;;;;25.24;83.53;95870.16;5025589;28;20443;-53
2021/07/14 08:33:11;;;;;;;3.20;2.30;;;;;;;25.42;85.99;95869.81;5002681;28;20077;-51
2021/07/14 08:35:41;;;;;;;3.95;2.50;;;;;;;24.96;91.59;95876.50;5019948;28;20065;-50
2021/07/14 08:38:09;;;;;;;4.78;2.60;;;;;;;27.95;63.48;95864.75;5021394;28;20069;-51
2021/07/14 08:40:40;;;;;;;4.13;2.50;;;;;;;28.58;58.87;95869.91;5026057;28;20077;-50
2021/07/14 08:43:10;;;;;;;4.45;2.50;;;;;;;27.75;65.32;95876.31;5022673;28;20072;-53
2021/07/14 08:45:39;;;;;;;;;;;;;;;26.58;67.53;95876.59;5024805;28;20068;-53
2021/07/14 08:48:08;;;;;;;4.97;2.72;;;;;;;25.65;75.44;95882.22;5025791;28;19967;-54
2021/07/14 08:50:42;;;;;;;2.80;2.45;;;;;;;26.00;71.68;95892.56;5022756;28;20061;-50
2021/07/14 08:53:15;;;;;;;2.88;2.63;;;;;;;25.53;81.77;95882.38;5022457;28;20081;-48
2021/07/14 08:55:46;;;;;;;2.97;2.60;;;;;;;27.62;68.96;95874.13;5024557;28;20076;-52
2021/07/14 08:58:15;;;;;;;4.78;2.70;;;;;;;28.00;59.57;95881.00;5027531;28;20065;-50
2021/07/14 09:00:43;;;;;;;2.97;2.67;;;;;;;29.21;51.40;95885.78;5020428;28;20060;-52
2021/07/14 09:03:12;;;;;;;4.65;2.50;;;;;;;29.20;53.31;95887.72;5023859;28;20528;-55
2021/07/14 09:05:40;;;;;;;3.45;2.35;;;;;;;27.72;57.45;95879.56;5023649;28;20610;-55
2021/07/14 09:08:09;;;;;;;3.20;2.47;;;;;;;27.27;62.33;95883.75;5023422;28;20076;-53
2021/07/14 09:10:37;;;;;;;3.35;2.35;;;;;;;26.54;68.24;95883.59;5026015;28;20088;-49
2021/07/14 09:13:08;;;;;;;2.70;2.40;;;;;;;28.27;60.11;95880.75;5019921;28;20069;-49
2021/07/14 09:15:40;;;;;;;4.47;2.45;;;;;;;28.11;60.66;95890.78;5024251;28;20073;-53
2021/07/14 09:18:09;;;;;;;6.35;2.50;;;;;;;26.66;73.56;95886.91;5019322;28;20075;-55
2021/07/14 09:20:38;;;;;;;3.38;2.90;;;;;;;27.52;62.53;95901.19;5020694;28;20069;-50
2021/07/14 09:23:07;;;;;;;4.63;3.00;;;;;;;26.55;64.45;95903.34;5022999;28;20084;-55
2021/07/14 09:25:42;;;;;;;5.07;2.90;;;;;;;26.98;67.03;95910.41;5024878;28;20407;-51
2021/07/14 09:28:13;;;;;;;4.32;3.20;;;;;;;27.13;70.99;95910.50;5021640;28;20065;-49
2021/07/14 09:30:44;;;;;;;3.60;2.67;;;;;;;25.96;78.17;95913.09;5021559;28;20076;-51
2021/07/14 09:33:15;;;;;;;4.38;2.67;;;;;;;26.59;71.51;95907.97;5024056;28;20072;-48
2021/07/14 09:35:45;;;;;;;4.72;2.75;;;;;;;26.70;70.04;95911.53;5021761;28;20460;-55
2021/07/14 09:38:14;;;;;;;;;;;;;;;26.87;70.08;95916.81;5022923;28;20554;-57
2021/07/14 09:40:44;;;;;;;7.65;2.47;;;;;;;27.36;70.23;95909.25;5028202;28;20407;-56
2021/07/14 09:43:15;;;;;;;11.43;2.75;;;;;;;27.22;65.49;95918.94;5021379;28;20072;-54
2021/07/14 09:45:47;;;;;;;5.28;2.70;;;;;;;26.42;75.12;95921.59;5017653;28;20068;-51
2021/07/14 09:48:18;;;;;;;3.05;2.70;;;;;;;26.12;77.77;95924.03;5023610;28;20077;-53
2021/07/14 09:50:49;;;;;;;4.30;2.80;;;;;;;26.92;74.55;95916.84;5022646;28;20094;-56
2021/07/14 09:53:20;;;;;;;5.10;2.40;;;;;;;27.90;63.23;95910.78;5022003;28;20527;-53
2021/07/14 09:55:50;;;;;;;4.82;2.88;;;;;;;28.24;61.33;95910.31;5025747;28;20053;-55
2021/07/14 09:58:24;;;;;;;3.38;2.75;;;;;;;27.91;61.47;95907.03;5023151;28;20064;-52
2021/07/14 10:00:54;;;;;;;3.42;2.10;;;;;;;28.10;61.05;95904.59;5005096;28;20507;-51
2021/07/14 10:03:25;;;;;;;4.00;2.60;;;;;;;27.14;66.21;95906.69;5018821;28;20062;-51
2021/07/14 10:06:04;;;;;;;6.78;2.65;;;;;;;29.24;52.59;95912.41;5022105;28;20472;-52
2021/07/14 10:08:34;;;;;;;4.20;2.55;;;;;;;28.53;55.44;95900.59;5019183;28;20490;-51
2021/07/14 10:11:12;;;;;;;3.97;2.70;;;;;;;28.01;56.09;95909.75;5016485;28;20080;-53
2021/07/14 10:13:54;;;;;;;5.15;2.70;;;;;;;28.83;54.46;95912.47;5022794;28;20436;-57
2021/07/14 10:16:24;;;;;;;4.20;2.80;;;;;;;29.24;50.48;95906.97;5025530;28;20065;-52
2021/07/14 10:18:56;;;;;;;3.50;2.97;;;;;;;27.37;61.47;95896.53;5020032;28;20057;-54
2021/07/14 10:21:25;;;;;;;4.18;2.85;;;;;;;28.62;56.66;95896.22;5019174;28;20193;-51
2021/07/14 10:23:54;;;;;;;3.45;2.50;;;;;;;28.62;53.24;95901.63;5024284;28;20061;-50
2021/07/14 10:26:22;;;;;;;3.92;2.58;;;;;;;28.94;56.04;95894.25;5020464;28;20057;-53
2021/07/14 10:28:52;;;;;;;4.63;2.80;;;;;;;28.63;51.47;95891.59;5018853;28;21632;-52
2021/07/14 10:31:22;;;;;;;3.17;2.60;;;;;;;31.90;41.77;95892.81;5019038;28;20163;-54
2021/07/14 10:33:51;;;;;;;3.35;2.67;;;;;;;31.67;41.58;95891.75;5022680;28;20057;-54
2021/07/14 10:36:22;;;;;;;3.00;2.60;;;;;;;30.35;45.24;95898.53;5021811;28;20068;-51
2021/07/14 10:38:58;;;;;;;4.35;2.63;;;;;;;28.97;49.22;95896.44;5022123;28;20077;-55
2021/07/14 10:41:28;;;;;;;4.03;2.60;;;;;;;31.02;44.32;95899.56;5025768;28;20065;-53
2021/07/14 10:43:58;;;;;;;4.97;2.70;;;;;;;29.72;45.45;95893.75;5022457;28;20089;-56
2021/07/14 10:46:29;;;;;;;3.08;2.65;;;;;;;31.32;43.35;95889.47;5012692;28;20068;-54
2021/07/14 10:49:00;;;;;;;3.45;2.85;;;;;;;30.18;44.48;95904.34;5025013;28;20112;-56
2021/07/14 10:51:30;;;;;;;3.60;2.70;;;;;;;30.64;46.20;95893.13;5001678;28;20061;-55
2021/07/14 10:54:00;;;;;;;;;;;;;;;30.53;43.96;95899.75;5019821;28;20068;-54
2021/07/14 10:56:29;;;;;;;3.92;3.15;;;;;;;31.83;41.50;95906.00;5019067;28;20516;-53
2021/07/14 10:58:59;;;;;;;3.33;3.03;;;;;;;30.77;44.86;95903.38;5028279;28;20103;-51
2021/07/14 11:01:41;;;;;;;4.78;3.00;;;;;;;30.06;44.21;95906.59;5018621;28;20485;-49
2021/07/14 11:04:14;;;;;;;4.32;2.60;;;;;;;30.23;46.16;95904.34;5017177;28;20061;-51
2021/07/14 11:06:59;;;;;;;3.70;2.58;;;;;;;28.03;60.28;95899.44;5028152;28;20050;-52
2021/07/14 11:09:34;;;;;;;2.45;2.25;;;;;;;27.42;70.30;95900.06;5025988;28;20064;-48
2021/07/14 11:12:04;;;;;;;2.28;2.00;;;;;;;26.07;74.95;95900.47;5024252;28;20076;-52
2021/07/14 11:14:38;;;;;;;3.45;2.60;;;;;;;26.01;82.43;95905.00;5018375;28;20630;-54
2021/07/14 11:17:07;;;;;;;3.22;2.63;;;;;;;26.07;83.04;95910.47;5028761;28;20081;-52
2021/07/14 11:19:47;;;;;;;3.38;2.58;;;;;;;25.93;87.17;95910.88;5024798;28;20110;-52
2021/07/14 11:22:16;;;;;;;;;;;;;;;26.10;87.66;95918.06;5020867;28;20069;-55
2021/07/14 11:24:57;;;;;;;3.30;2.20;;;;;;;25.84;84.72;95915.09;5026006;28;19964;-54
2021/07/14 11:27:48;;;;;;;4.32;2.53;;;;;;;26.09;85.39;95919.16;5022652;28;20057;-51
2021/07/14 11:30:28;;;;;;;4.53;3.15;;;;;;;26.78;80.54;95910.28;5023825;28;20072;-52
2021/07/14 11:32:59;;;;;;;4.18;2.50;;;;;;;26.70;79.90;95911.53;5026110;28;20096;-51
2021/07/14 11:35:36;;;;;;;5.03;2.50;;;;;;;26.62;79.67;95912.84;5026503;28;20057;-53
2021/07/14 11:38:06;;;;;;;3.83;2.60;;;;;;;26.93;73.54;95910.34;5021281;28;20088;-52
2021/07/14 11:40:35;;;;;;;3.08;2.40;;;;;;;27.16;72.90;95912.69;5025763;28;20510;-56
2021/07/14 11:43:14;;;;;;;4.18;2.55;;;;;;;27.30;73.79;95913.00;5025736;28;20061;-52
2021/07/14 11:45:45;;;;;;;3.85;2.22;;;;;;;27.18;74.39;95898.88;5025209;28;20069;-55
2021/07/14 11:48:15;;;;;;;3.97;2.85;;;;;;;26.94;77.66;95901.16;5022860;28;20079;-50